Terminal Aerodrome Forecast
Issued by NWS Wakefield, VA

Home | Current Version | Previous Version | Text Only | Print | Product List | Glossary On
Versions: 1 2 3 4 5 6 7 8 9 10 11 12 13
000
FTUS41 KAKQ 062328
TAFECG
TAF
KECG 062328Z 0700/0724 13007KT P6SM SKC
     FM070800 06003KT P6SM SCT015 BKN250
     FM071500 06011KT P6SM SCT025 BKN250=

USA.gov is the U.S. government's official web portal to all federal, state and local government web resources and services.